Time;durP1;ratioP1;P1;durP2;ratioP2;P2;SDS_P1;SDS_P2;PMS_P1;PMS_P2;Temp;Humidity;BMP_temperature;BMP_pressure;BME280_temperature;BME280_humidity;BME280_pressure;Samples;Min_cycle;Max_cycle;Signal;HPM_P1;HPM_P2
2023/08/06 00:00:39;;;;;;;3.58;2.53;;;;;;;21.05;87.78;93702.00;5061496;28;20190;-75
2023/08/06 00:03:05;;;;;;;6.95;2.55;;;;;;;21.10;88.20;93699.22;5062999;28;20214;-75
2023/08/06 00:05:31;;;;;;;3.35;2.50;;;;;;;20.99;86.83;93735.34;5062055;28;20858;-75
2023/08/06 00:07:56;;;;;;;3.77;2.57;;;;;;;20.46;88.52;93733.28;5066309;28;20423;-75
2023/08/06 00:10:21;;;;;;;5.15;3.20;;;;;;;20.70;89.64;93754.44;5066724;28;20586;-75
2023/08/06 00:12:48;;;;;;;3.85;2.72;;;;;;;20.80;88.88;93756.91;5056645;28;20186;-75
2023/08/06 00:15:14;;;;;;;3.22;2.50;;;;;;;20.92;89.35;93767.88;5064593;28;20170;-75
2023/08/06 00:17:39;;;;;;;4.28;2.90;;;;;;;21.04;89.46;93754.75;5071513;28;20232;-75
2023/08/06 00:20:06;;;;;;;5.05;2.58;;;;;;;21.07;89.41;93734.63;5058582;28;20567;-75
2023/08/06 00:22:32;;;;;;;3.55;3.13;;;;;;;20.97;89.67;93727.63;5062171;28;20539;-75
2023/08/06 00:24:58;;;;;;;4.85;2.92;;;;;;;21.06;89.54;93746.41;5058239;28;20657;-75
2023/08/06 00:27:23;;;;;;;2.83;2.58;;;;;;;21.03;88.76;93755.03;5055710;28;20194;-75
2023/08/06 00:29:49;;;;;;;3.60;2.50;;;;;;;21.09;88.77;93753.84;5068837;28;20171;-75
2023/08/06 00:32:14;;;;;;;4.07;2.83;;;;;;;21.14;89.24;93745.69;5067486;28;20206;-75
2023/08/06 00:34:39;;;;;;;5.65;2.50;;;;;;;21.13;89.66;93728.03;5070462;28;20181;-75
2023/08/06 00:37:05;;;;;;;4.90;2.47;;;;;;;21.07;89.25;93719.34;5070930;28;20251;-75
2023/08/06 00:39:30;;;;;;;5.85;2.67;;;;;;;21.02;87.27;93716.00;5069259;28;20235;-75
2023/08/06 00:41:55;;;;;;;3.90;2.50;;;;;;;20.90;87.99;93719.22;5060837;28;20179;-75
2023/08/06 00:44:21;;;;;;;3.67;2.55;;;;;;;20.88;88.26;93715.25;5070082;28;20181;-75
2023/08/06 00:46:47;;;;;;;3.53;2.75;;;;;;;20.87;89.27;93721.69;5067441;28;20207;-74
2023/08/06 00:49:12;;;;;;;5.05;3.83;;;;;;;20.55;89.66;93677.22;5065496;28;20178;-75
2023/08/06 00:51:38;;;;;;;6.43;5.05;;;;;;;20.92;88.18;93718.94;5068226;28;20206;-75
2023/08/06 00:54:03;;;;;;;5.80;2.78;;;;;;;20.95;88.62;93712.94;5064683;28;20175;-75
2023/08/06 00:56:29;;;;;;;5.38;2.72;;;;;;;20.95;88.19;93713.75;5050833;28;20179;-75
2023/08/06 00:58:54;;;;;;;5.93;3.25;;;;;;;20.96;88.55;93714.53;5053203;28;20232;-75
2023/08/06 01:01:20;;;;;;;6.80;4.47;;;;;;;21.04;88.39;93709.25;5050664;28;20646;-75
2023/08/06 01:03:46;;;;;;;5.65;3.80;;;;;;;21.14;88.93;93708.22;5053053;28;20591;-75
2023/08/06 01:06:11;;;;;;;4.47;2.78;;;;;;;21.15;88.76;93698.31;5055243;28;20204;-75
2023/08/06 01:08:53;;;;;;;7.93;2.90;;;;;;;21.16;89.22;93679.25;5056171;28;20202;-75
2023/08/06 01:11:24;;;;;;;10.77;3.70;;;;;;;21.10;88.72;93669.78;5065246;28;20614;-75
2023/08/06 01:13:59;;;;;;;9.80;3.40;;;;;;;20.99;89.27;93658.53;5049455;28;20174;-75
2023/08/06 01:16:25;;;;;;;3.85;3.03;;;;;;;21.06;89.38;93672.28;5050422;28;20228;-75
2023/08/06 01:18:51;;;;;;;4.40;3.28;;;;;;;21.14;88.53;93675.31;5060211;28;20187;-75
2023/08/06 01:21:17;;;;;;;3.50;2.90;;;;;;;21.02;89.01;93665.16;5070262;28;20178;-75
2023/08/06 01:23:43;;;;;;;3.80;2.85;;;;;;;21.12;89.26;93680.97;5060632;28;20549;-75
2023/08/06 01:26:15;;;;;;;5.13;3.30;;;;;;;21.15;90.02;93682.25;5050532;28;20650;-75
2023/08/06 01:28:45;;;;;;;7.80;5.03;;;;;;;21.19;90.09;93681.34;5052232;28;20269;-75
2023/08/06 01:31:27;;;;;;;10.90;7.53;;;;;;;21.02;89.87;93643.72;5052304;28;20202;-75
2023/08/06 01:33:53;;;;;;;13.23;9.57;;;;;;;21.29;89.84;93675.75;5068245;28;20236;-74
2023/08/06 01:36:21;;;;;;;18.67;10.43;;;;;;;21.18;89.05;93646.88;5070108;28;20174;-75
2023/08/06 01:38:46;;;;;;;4.90;3.95;;;;;;;21.30;88.59;93647.09;5056532;28;20187;-75
2023/08/06 01:41:12;;;;;;;14.98;10.27;;;;;;;21.36;88.98;93660.03;5055341;28;20252;-75
2023/08/06 01:43:37;;;;;;;12.52;7.93;;;;;;;21.10;87.83;93618.94;5056248;28;20183;-75
2023/08/06 01:46:02;;;;;;;6.18;3.90;;;;;;;21.26;88.36;93640.78;5068550;28;20289;-75
2023/08/06 01:48:28;;;;;;;5.00;3.17;;;;;;;21.34;88.19;93656.88;5065678;28;20256;-75
2023/08/06 01:50:53;;;;;;;11.30;5.18;;;;;;;21.29;88.23;93656.22;5064132;28;20182;-75
2023/08/06 01:53:19;;;;;;;4.15;3.58;;;;;;;21.28;88.46;93654.63;5058756;28;20175;-75
2023/08/06 01:55:50;;;;;;;7.45;5.10;;;;;;;21.32;88.43;93661.75;5050699;28;20175;-75
2023/08/06 01:58:15;;;;;;;6.22;4.03;;;;;;;21.31;88.85;93662.84;5068174;28;20174;-75
2023/08/06 02:00:41;;;;;;;5.38;4.05;;;;;;;21.14;89.51;93625.25;5053748;28;20190;-74
2023/08/06 02:03:07;;;;;;;5.30;3.85;;;;;;;21.31;89.73;93637.97;5052894;28;20175;-74
2023/08/06 02:05:32;;;;;;;5.32;3.80;;;;;;;21.37;89.14;93634.03;5061251;28;20272;-75
2023/08/06 02:07:58;;;;;;;4.32;3.00;;;;;;;21.32;88.17;93631.50;5055047;28;20633;-74
2023/08/06 02:10:23;;;;;;;10.45;3.22;;;;;;;21.30;88.95;93637.16;5060118;28;20175;-74
2023/08/06 02:12:49;;;;;;;4.38;3.03;;;;;;;21.35;89.04;93644.28;5066240;28;20171;-75
2023/08/06 02:15:14;;;;;;;7.28;3.28;;;;;;;21.28;88.79;93625.97;5070047;28;20251;-75
2023/08/06 02:17:39;;;;;;;5.97;3.03;;;;;;;21.37;88.75;93636.72;5069947;28;20170;-75
2023/08/06 02:20:06;;;;;;;5.32;3.17;;;;;;;21.41;88.48;93656.44;5067124;28;20183;-75
2023/08/06 02:22:31;;;;;;;4.93;3.38;;;;;;;21.25;88.10;93669.44;5068162;28;20189;-75
2023/08/06 02:24:56;;;;;;;7.20;3.97;;;;;;;21.20;89.47;93669.53;5069191;28;20413;-75
2023/08/06 02:27:22;;;;;;;12.50;4.78;;;;;;;21.18;89.83;93679.00;5067153;28;20550;-75
2023/08/06 02:29:47;;;;;;;9.63;3.88;;;;;;;21.20;91.25;93664.19;5053767;28;20264;-75
2023/08/06 02:32:13;;;;;;;12.07;4.32;;;;;;;21.22;91.39;93637.91;5060019;28;20274;-75
2023/08/06 02:34:38;;;;;;;9.20;3.38;;;;;;;21.10;91.94;93608.22;5065012;28;20179;-75
2023/08/06 02:37:04;;;;;;;8.47;4.23;;;;;;;20.93;91.48;93630.31;5058672;28;20430;-75
2023/08/06 02:39:29;;;;;;;10.02;3.92;;;;;;;20.70;92.51;93674.19;5052352;28;20423;-75
2023/08/06 02:41:54;;;;;;;7.30;3.47;;;;;;;20.42;92.45;93675.38;5052996;28;20758;-75
2023/08/06 02:44:20;;;;;;;4.70;3.37;;;;;;;20.51;94.03;93693.06;5052075;28;20412;-75
2023/08/06 02:46:45;;;;;;;5.00;3.15;;;;;;;20.61;94.82;93681.34;5057244;28;20603;-75
2023/08/06 02:49:11;;;;;;;6.00;2.63;;;;;;;20.82;95.25;93682.50;5070748;28;20181;-75
2023/08/06 02:51:36;;;;;;;6.07;3.50;;;;;;;20.88;94.85;93664.44;5066353;28;20298;-75
2023/08/06 02:54:01;;;;;;;7.95;2.90;;;;;;;20.99;94.38;93655.06;5070789;28;20175;-75
2023/08/06 02:56:27;;;;;;;4.22;3.10;;;;;;;20.99;94.03;93623.75;5061980;28;20650;-75
2023/08/06 02:58:52;;;;;;;4.38;2.85;;;;;;;20.96;94.23;93596.78;5052939;28;20205;-75
2023/08/06 03:01:17;;;;;;;5.53;3.38;;;;;;;21.04;94.12;93622.81;5052347;28;20185;-75
2023/08/06 03:03:43;;;;;;;5.38;2.83;;;;;;;20.96;92.48;93626.22;5051962;28;20175;-75
2023/08/06 03:06:08;;;;;;;5.38;3.30;;;;;;;21.07;93.50;93633.72;5061201;28;20198;-75
2023/08/06 03:08:34;;;;;;;7.07;3.10;;;;;;;21.15;93.61;93600.06;5072766;28;20193;-75
2023/08/06 03:11:00;;;;;;;4.85;2.83;;;;;;;21.17;93.75;93568.47;5070139;28;20182;-75
2023/08/06 03:13:25;;;;;;;4.60;2.80;;;;;;;20.93;92.77;93586.72;5072858;28;20670;-75
2023/08/06 03:15:58;;;;;;;6.40;3.55;;;;;;;20.29;95.15;93634.97;5071588;28;20416;-75
2023/08/06 03:18:26;;;;;;;5.43;3.60;;;;;;;20.04;97.73;93629.41;5071922;28;20450;-75
2023/08/06 03:20:51;;;;;;;5.00;3.10;;;;;;;20.24;97.83;93583.50;5072702;28;20260;-75
2023/08/06 03:23:17;;;;;;;4.43;3.25;;;;;;;20.39;97.09;93590.44;5072251;28;20348;-75
2023/08/06 03:25:43;;;;;;;4.80;2.72;;;;;;;20.48;96.36;93624.16;5065318;28;20194;-75
2023/08/06 03:28:09;;;;;;;5.47;3.63;;;;;;;20.43;97.71;93637.63;5071121;28;20418;-75
2023/08/06 03:30:34;;;;;;;3.95;2.72;;;;;;;20.61;97.48;93619.84;5057250;28;20622;-75
2023/08/06 03:33:00;;;;;;;5.75;3.08;;;;;;;20.72;96.93;93626.56;5071894;28;20178;-75
2023/08/06 03:35:25;;;;;;;6.65;3.17;;;;;;;20.87;96.88;93647.59;5070770;28;20771;-75
2023/08/06 03:37:50;;;;;;;3.85;3.00;;;;;;;20.94;96.00;93655.16;5072057;28;20178;-75
2023/08/06 03:40:16;;;;;;;3.80;2.95;;;;;;;21.01;94.53;93659.03;5063025;28;20573;-75
2023/08/06 03:42:41;;;;;;;3.53;2.60;;;;;;;21.04;94.13;93653.03;5058148;28;20193;-75
2023/08/06 03:45:07;;;;;;;4.75;3.42;;;;;;;21.07;93.22;93648.97;5056777;28;20166;-75
2023/08/06 03:47:33;;;;;;;4.72;3.25;;;;;;;21.06;93.44;93660.78;5064742;28;20175;-75
2023/08/06 03:49:58;;;;;;;5.80;3.42;;;;;;;21.13;93.23;93663.00;5051821;28;20214;-75
2023/08/06 03:52:23;;;;;;;7.05;4.70;;;;;;;21.09;91.92;93660.97;5054031;28;20571;-75
2023/08/06 03:54:49;;;;;;;10.00;6.85;;;;;;;21.02;92.62;93654.44;5065381;28;20182;-75
2023/08/06 03:57:14;;;;;;;8.20;6.05;;;;;;;21.15;92.47;93675.00;5066833;28;20171;-75
2023/08/06 03:59:40;;;;;;;14.40;8.70;;;;;;;21.20;93.57;93666.06;5050253;28;20198;-75
2023/08/06 04:02:05;;;;;;;10.20;7.30;;;;;;;21.26;93.34;93668.34;5065073;28;20174;-75
2023/08/06 04:04:30;;;;;;;6.40;4.78;;;;;;;21.26;92.92;93668.34;5063284;28;20223;-75
2023/08/06 04:06:56;;;;;;;8.60;5.60;;;;;;;21.32;93.38;93675.13;5058055;28;20670;-75
2023/08/06 04:09:21;;;;;;;6.60;4.22;;;;;;;21.38;93.14;93675.78;5062722;28;20171;-75
2023/08/06 04:11:47;;;;;;;4.78;3.70;;;;;;;21.33;92.72;93666.00;5071541;28;20249;-75
2023/08/06 04:14:12;;;;;;;7.50;3.42;;;;;;;21.45;93.08;93684.97;5054599;28;20252;-75
2023/08/06 04:16:37;;;;;;;4.00;3.25;;;;;;;21.45;92.32;93682.28;5060192;28;20661;-75
2023/08/06 04:19:03;;;;;;;5.82;3.97;;;;;;;21.38;92.66;93681.94;5062708;28;20228;-75
2023/08/06 04:21:28;;;;;;;4.97;3.75;;;;;;;21.43;92.63;93684.50;5052828;28;20265;-76
2023/08/06 04:23:53;;;;;;;8.25;6.40;;;;;;;21.38;93.09;93663.19;5053267;28;20182;-75
2023/08/06 04:26:19;;;;;;;8.40;5.68;;;;;;;21.52;92.80;93667.69;5070896;28;20194;-75
2023/08/06 04:28:44;;;;;;;6.15;3.70;;;;;;;21.53;92.67;93670.06;5056409;28;20567;-75
2023/08/06 04:31:10;;;;;;;11.18;4.00;;;;;;;21.49;93.31;93657.56;5057464;28;20171;-78
2023/08/06 04:33:35;;;;;;;8.20;6.03;;;;;;;21.52;93.12;93643.59;5060660;28;20178;-77
2023/08/06 04:36:00;;;;;;;11.85;9.98;;;;;;;21.63;92.81;93658.25;5064724;28;20163;-75
2023/08/06 04:38:26;;;;;;;20.92;12.95;;;;;;;21.65;92.38;93661.44;5071232;28;20179;-75
2023/08/06 04:40:52;;;;;;;10.07;8.95;;;;;;;21.68;92.80;93652.78;5066622;28;20193;-75
2023/08/06 04:43:18;;;;;;;7.00;5.55;;;;;;;21.69;92.31;93640.97;5062061;28;20178;-75
2023/08/06 04:45:50;;;;;;;6.78;4.82;;;;;;;21.69;91.90;93625.69;5065853;28;20278;-76
2023/08/06 04:48:15;;;;;;;9.50;3.53;;;;;;;21.77;91.48;93624.13;5053070;28;20185;-76
2023/08/06 04:50:48;;;;;;;6.28;3.33;;;;;;;21.78;91.47;93621.16;5055190;28;20171;-75
2023/08/06 04:53:14;;;;;;;7.05;3.35;;;;;;;21.76;91.04;93614.53;5053466;28;20180;-75
2023/08/06 04:55:39;;;;;;;5.60;3.67;;;;;;;21.81;91.41;93607.13;5053760;28;20177;-75
2023/08/06 04:58:05;;;;;;;10.07;7.03;;;;;;;21.84;90.43;93608.41;5058265;28;20175;-75
2023/08/06 05:00:31;;;;;;;11.80;8.05;;;;;;;21.90;90.86;93593.75;5053401;28;20181;-76
2023/08/06 05:02:56;;;;;;;7.07;5.20;;;;;;;21.93;90.24;93593.13;5061781;28;20229;-75
2023/08/06 05:05:22;;;;;;;9.07;5.93;;;;;;;22.03;89.49;93595.53;5050277;28;20711;-74
2023/08/06 05:07:49;;;;;;;5.00;3.83;;;;;;;22.19;89.27;93602.03;5050200;28;20179;-74
2023/08/06 05:10:15;;;;;;;4.28;3.85;;;;;;;22.41;88.96;93608.34;5060296;28;20190;-75
2023/08/06 05:12:40;;;;;;;5.28;3.40;;;;;;;22.88;88.24;93607.41;5060548;28;20670;-75
2023/08/06 05:15:07;;;;;;;4.28;3.13;;;;;;;23.98;85.01;93600.41;5051045;28;20174;-75
2023/08/06 05:17:32;;;;;;;3.42;2.95;;;;;;;25.24;79.46;93615.47;5064895;28;20175;-74
2023/08/06 05:19:58;;;;;;;4.00;3.17;;;;;;;26.34;74.79;93624.50;5052987;28;20642;-74
2023/08/06 05:22:23;;;;;;;3.05;2.40;;;;;;;27.25;70.94;93620.16;5070026;28;20178;-74
2023/08/06 05:24:49;;;;;;;3.55;3.00;;;;;;;28.35;68.11;93640.00;5057662;28;20623;-75
2023/08/06 05:27:14;;;;;;;5.25;3.83;;;;;;;29.44;63.70;93632.63;5049896;28;20264;-72
2023/08/06 05:29:40;;;;;;;6.80;4.75;;;;;;;30.04;61.45;93616.63;5054896;28;20186;-74
2023/08/06 05:32:05;;;;;;;11.95;8.70;;;;;;;30.73;58.77;93625.44;5070243;28;20875;-74
2023/08/06 05:34:31;;;;;;;13.02;9.82;;;;;;;31.38;57.14;93625.09;5050205;28;20174;-74
2023/08/06 05:36:56;;;;;;;8.82;7.28;;;;;;;32.05;53.88;93630.44;5065809;28;20158;-74
2023/08/06 05:39:21;;;;;;;6.38;5.38;;;;;;;32.35;51.54;93630.31;5051589;28;20574;-75
2023/08/06 05:41:47;;;;;;;5.53;3.97;;;;;;;32.78;51.42;93618.53;5049596;28;20562;-74
2023/08/06 05:44:15;;;;;;;4.28;3.85;;;;;;;33.14;50.51;93611.31;5051847;28;20175;-74
2023/08/06 05:46:40;;;;;;;2.58;2.38;;;;;;;32.06;50.71;93610.22;5049785;28;20203;-77
2023/08/06 05:49:06;;;;;;;4.13;2.70;;;;;;;31.42;51.02;93607.66;5057360;28;20176;-78
2023/08/06 05:51:31;;;;;;;3.28;2.80;;;;;;;30.90;53.88;93608.56;5063718;28;20177;-78
2023/08/06 05:53:57;;;;;;;12.60;4.53;;;;;;;30.61;54.81;93615.59;5060275;28;20173;-78
2023/08/06 05:56:22;;;;;;;5.43;2.13;;;;;;;30.55;54.69;93624.41;5062013;28;20174;-79
2023/08/06 05:58:48;;;;;;;6.90;2.55;;;;;;;31.29;55.27;93636.28;5054141;28;20646;-76
2023/08/06 06:01:14;;;;;;;4.60;2.03;;;;;;;32.39;51.98;93637.34;5050567;28;20160;-76
2023/08/06 06:03:39;;;;;;;3.22;1.85;;;;;;;33.13;49.20;93647.94;5054762;28;20266;-74
2023/08/06 06:06:05;;;;;;;2.83;2.17;;;;;;;33.84;48.53;93653.69;5051375;28;20191;-75
2023/08/06 06:08:30;;;;;;;2.35;2.13;;;;;;;34.07;47.30;93650.63;5055698;28;20171;-76
2023/08/06 06:10:55;;;;;;;2.25;1.90;;;;;;;33.82;48.41;93658.75;5053796;28;20187;-76
2023/08/06 06:13:21;;;;;;;2.40;1.83;;;;;;;33.72;47.52;93656.78;5054584;28;20257;-76
2023/08/06 06:15:47;;;;;;;5.80;1.88;;;;;;;33.47;46.25;93658.66;5060745;28;20210;-76
2023/08/06 06:18:13;;;;;;;8.77;2.92;;;;;;;33.42;46.76;93654.34;5070674;28;20297;-76
2023/08/06 06:20:38;;;;;;;7.18;2.33;;;;;;;33.17;48.25;93665.13;5070412;28;20174;-76
2023/08/06 06:23:04;;;;;;;10.23;6.03;;;;;;;32.72;48.09;93671.88;5056795;28;20178;-76
2023/08/06 06:25:29;;;;;;;3.28;2.15;;;;;;;31.74;49.17;93678.00;5050319;28;20686;-76
2023/08/06 06:27:54;;;;;;;3.13;2.15;;;;;;;30.51;52.72;93664.31;5050844;28;20167;-76
2023/08/06 06:30:20;;;;;;;2.80;1.63;;;;;;;29.74;55.06;93680.84;5050729;28;20261;-76
2023/08/06 06:32:45;;;;;;;2.42;1.95;;;;;;;29.02;57.65;93661.59;5052050;28;20173;-76
2023/08/06 06:35:12;;;;;;;4.35;2.03;;;;;;;28.52;57.00;93665.91;5052109;28;20225;-76
2023/08/06 06:37:37;;;;;;;4.72;2.55;;;;;;;27.91;59.30;93677.19;5052252;28;20210;-76
2023/08/06 06:40:03;;;;;;;4.18;1.63;;;;;;;27.40;60.67;93671.59;5052472;28;20677;-76
2023/08/06 06:42:29;;;;;;;4.47;3.03;;;;;;;26.76;63.47;93687.06;5051039;28;20598;-76
2023/08/06 06:44:54;;;;;;;4.07;2.80;;;;;;;26.32;64.34;93697.69;5052207;28;20187;-76
2023/08/06 06:47:20;;;;;;;4.53;2.95;;;;;;;25.85;65.33;93698.09;5052079;28;20273;-76
2023/08/06 06:49:45;;;;;;;5.30;4.38;;;;;;;25.50;66.97;93683.38;5050690;28;20175;-76
2023/08/06 06:52:11;;;;;;;10.77;6.13;;;;;;;25.44;68.92;93701.66;5051976;28;20299;-76
2023/08/06 06:54:37;;;;;;;7.43;3.92;;;;;;;25.18;68.11;93674.94;5052000;28;20175;-76
2023/08/06 06:57:02;;;;;;;3.90;3.00;;;;;;;25.18;68.55;93704.56;5059813;28;20166;-76
2023/08/06 06:59:28;;;;;;;3.38;3.08;;;;;;;25.18;68.83;93714.56;5072036;28;20657;-76
2023/08/06 07:01:53;;;;;;;6.25;3.40;;;;;;;25.28;68.78;93716.06;5072064;28;20169;-76
2023/08/06 07:04:18;;;;;;;6.70;4.00;;;;;;;25.18;67.60;93709.97;5071850;28;20724;-76
2023/08/06 07:06:44;;;;;;;5.65;4.65;;;;;;;25.28;67.61;93722.25;5058610;28;20206;-76
2023/08/06 07:09:10;;;;;;;5.68;4.25;;;;;;;25.28;67.84;93727.63;5051701;28;20175;-76
2023/08/06 07:11:35;;;;;;;3.35;2.80;;;;;;;25.39;67.90;93730.72;5051842;28;20173;-76
2023/08/06 07:14:01;;;;;;;2.50;2.10;;;;;;;25.47;67.07;93730.63;5051697;28;20179;-76
2023/08/06 07:16:26;;;;;;;2.70;2.00;;;;;;;25.28;63.99;93738.41;5051461;28;20206;-76
2023/08/06 07:18:53;;;;;;;4.38;3.20;;;;;;;25.21;65.37;93730.09;5050517;28;20254;-76
2023/08/06 07:21:19;;;;;;;2.97;2.55;;;;;;;25.55;63.52;93734.38;5051489;28;20200;-77
2023/08/06 07:23:46;;;;;;;2.83;2.42;;;;;;;26.14;63.65;93732.16;5051689;28;20659;-76
2023/08/06 07:26:11;;;;;;;4.80;2.53;;;;;;;26.61;60.66;93729.88;5051944;28;20262;-76
2023/08/06 07:28:36;;;;;;;2.88;2.58;;;;;;;27.05;61.96;93708.44;5051467;28;20601;-76
2023/08/06 07:31:03;;;;;;;2.42;2.22;;;;;;;28.02;59.67;93737.75;5059751;28;20709;-76
2023/08/06 07:33:28;;;;;;;8.30;5.22;;;;;;;28.76;55.65;93741.56;5062137;28;20185;-76
2023/08/06 07:35:54;;;;;;;5.47;4.28;;;;;;;29.00;53.86;93720.78;5068099;28;20254;-78
2023/08/06 07:38:21;;;;;;;2.95;1.70;;;;;;;29.16;53.03;93738.56;5055649;28;20175;-77
2023/08/06 07:40:48;;;;;;;2.40;2.15;;;;;;;29.25;52.59;93736.44;5067289;28;20205;-77
2023/08/06 07:43:13;;;;;;;3.67;2.50;;;;;;;28.65;53.67;93726.16;5059463;28;20171;-78
2023/08/06 07:45:39;;;;;;;2.63;2.42;;;;;;;28.45;53.97;93733.47;5062009;28;20191;-76
2023/08/06 07:48:04;;;;;;;5.55;2.70;;;;;;;28.31;53.92;93712.22;5064300;28;20171;-77
2023/08/06 07:50:30;;;;;;;5.45;2.65;;;;;;;28.71;54.70;93725.56;5057884;28;20168;-77
2023/08/06 07:52:55;;;;;;;3.88;2.30;;;;;;;29.08;54.28;93700.81;5062986;28;20178;-78
2023/08/06 07:55:21;;;;;;;5.82;2.85;;;;;;;29.92;52.78;93730.81;5058732;28;20175;-78
2023/08/06 07:57:47;;;;;;;3.60;2.40;;;;;;;30.54;53.24;93728.81;5060398;28;20159;-77
2023/08/06 08:00:13;;;;;;;2.83;2.30;;;;;;;30.79;50.67;93732.69;5057124;28;20171;-78
2023/08/06 08:02:38;;;;;;;4.43;2.00;;;;;;;30.90;51.85;93719.25;5060598;28;20514;-77
2023/08/06 08:05:04;;;;;;;3.10;2.58;;;;;;;30.70;50.08;93722.06;5064502;28;20228;-79
2023/08/06 08:07:30;;;;;;;4.50;2.50;;;;;;;30.33;50.64;93726.50;5056717;28;21076;-79
2023/08/06 08:09:56;;;;;;;2.72;2.40;;;;;;;30.14;49.55;93713.78;5054905;28;20175;-78
2023/08/06 08:12:22;;;;;;;2.47;2.15;;;;;;;30.11;52.45;93721.84;5063345;28;20304;-79
2023/08/06 08:14:47;;;;;;;4.32;2.90;;;;;;;29.91;51.10;93707.53;5064228;28;20202;-79
2023/08/06 08:17:13;;;;;;;2.15;1.95;;;;;;;29.19;51.37;93718.09;5058341;28;20602;-79
2023/08/06 08:19:40;;;;;;;2.53;2.03;;;;;;;29.42;55.09;93729.06;5059122;28;20693;-75
2023/08/06 08:22:05;;;;;;;2.47;2.08;;;;;;;29.59;52.57;93723.19;5057163;28;20254;-74
2023/08/06 08:24:31;;;;;;;3.05;1.80;;;;;;;29.54;54.12;93723.50;5052920;28;20305;-76
2023/08/06 08:26:56;;;;;;;2.35;2.10;;;;;;;29.86;54.20;93726.81;5052469;28;20175;-75
2023/08/06 08:29:22;;;;;;;2.40;2.10;;;;;;;29.92;51.80;93703.66;5055225;28;20175;-75
2023/08/06 08:31:51;;;;;;;2.03;1.80;;;;;;;29.91;53.35;93726.53;5052347;28;20262;-76
2023/08/06 08:34:17;;;;;;;2.25;2.05;;;;;;;30.23;52.43;93713.53;5058954;28;20194;-75
2023/08/06 08:36:43;;;;;;;2.40;2.08;;;;;;;30.69;52.82;93720.53;5052866;28;20175;-74
2023/08/06 08:39:08;;;;;;;2.22;2.00;;;;;;;30.97;50.05;93716.63;5053344;28;20732;-75
2023/08/06 08:41:37;;;;;;;2.70;2.50;;;;;;;31.01;49.45;93722.91;5055136;28;20170;-75
2023/08/06 08:44:04;;;;;;;3.85;2.70;;;;;;;30.75;50.53;93696.53;5056641;28;20558;-77
2023/08/06 08:46:32;;;;;;;6.03;2.13;;;;;;;30.84;50.40;93713.34;5054660;28;20191;-76
2023/08/06 08:48:59;;;;;;;2.20;1.90;;;;;;;30.78;49.09;93720.28;5054649;28;20269;-77
2023/08/06 08:51:27;;;;;;;4.72;1.95;;;;;;;30.46;49.83;93708.84;5059920;28;20649;-77
2023/08/06 08:53:56;;;;;;;2.63;2.28;;;;;;;30.29;49.71;93704.72;5061695;28;20653;-76
2023/08/06 08:56:21;;;;;;;2.45;2.22;;;;;;;30.26;50.03;93712.81;5052506;28;20182;-76
2023/08/06 08:58:48;;;;;;;3.90;2.00;;;;;;;30.09;49.67;93705.94;5049741;28;20167;-76
2023/08/06 09:01:15;;;;;;;4.43;2.10;;;;;;;29.74;50.58;93706.06;5055551;28;20202;-77
2023/08/06 09:03:41;;;;;;;2.45;2.25;;;;;;;28.86;51.74;93694.16;5058623;28;20175;-76
2023/08/06 09:06:07;;;;;;;2.33;2.10;;;;;;;28.92;55.26;93686.53;5056708;28;20622;-75
2023/08/06 09:08:39;;;;;;;5.45;2.20;;;;;;;29.32;54.75;93697.06;5051051;28;20191;-76
2023/08/06 09:11:05;;;;;;;3.38;1.92;;;;;;;29.55;53.10;93658.03;5055197;28;20562;-75
2023/08/06 09:13:30;;;;;;;4.75;2.25;;;;;;;29.96;51.19;93691.75;5052332;28;20175;-78
2023/08/06 09:15:56;;;;;;;4.38;2.40;;;;;;;30.11;50.99;93692.75;5053014;28;20250;-76
2023/08/06 09:18:29;;;;;;;4.25;2.25;;;;;;;29.99;51.63;93692.97;5053435;28;20174;-75
2023/08/06 09:20:56;;;;;;;2.88;1.90;;;;;;;29.78;51.27;93689.81;5052109;28;20232;-76
2023/08/06 09:23:29;;;;;;;2.38;2.00;;;;;;;29.91;50.43;93685.81;5052207;28;20185;-75
2023/08/06 09:25:54;;;;;;;3.70;1.90;;;;;;;29.99;50.41;93671.25;5056313;28;20199;-74
2023/08/06 09:28:20;;;;;;;1.77;1.67;;;;;;;30.25;48.09;93690.31;5050733;28;20174;-74
2023/08/06 09:30:48;;;;;;;3.20;2.30;;;;;;;30.32;49.51;93676.84;5051013;28;20178;-75
2023/08/06 09:33:18;;;;;;;3.50;2.17;;;;;;;30.42;46.38;93682.78;5048411;28;20187;-75
2023/08/06 09:35:43;;;;;;;2.20;1.60;;;;;;;30.43;48.42;93682.44;5048464;28;20175;-75
2023/08/06 09:38:10;;;;;;;3.13;1.90;;;;;;;30.62;47.87;93679.63;5051212;28;20198;-75
2023/08/06 09:40:36;;;;;;;3.20;1.77;;;;;;;30.70;47.51;93659.56;5050885;28;20183;-75
2023/08/06 09:43:02;;;;;;;4.38;1.90;;;;;;;30.85;45.52;93660.56;5054401;28;20193;-75
2023/08/06 09:45:35;;;;;;;2.05;1.60;;;;;;;30.79;46.22;93667.44;5051688;28;22142;-75
2023/08/06 09:48:05;;;;;;;1.80;1.60;;;;;;;30.24;44.18;93675.16;5053393;28;20231;-75
2023/08/06 09:50:33;;;;;;;4.18;2.15;;;;;;;29.84;47.06;93663.97;5048349;28;20197;-76
2023/08/06 09:53:00;;;;;;;4.63;1.90;;;;;;;29.90;48.76;93668.72;5052271;28;20176;-78
2023/08/06 09:55:26;;;;;;;2.97;2.05;;;;;;;30.00;48.34;93661.94;5060743;28;20557;-77
2023/08/06 09:57:53;;;;;;;1.70;1.60;;;;;;;29.91;46.40;93667.59;5060287;28;20622;-78
2023/08/06 10:00:19;;;;;;;2.65;2.25;;;;;;;29.94;47.83;93671.53;5069193;28;20184;-78
2023/08/06 10:02:45;;;;;;;1.73;1.63;;;;;;;29.70;46.33;93679.97;5060292;28;20190;-78
2023/08/06 10:05:11;;;;;;;3.25;1.70;;;;;;;29.53;46.84;93679.28;5055652;28;20233;-78
2023/08/06 10:07:39;;;;;;;2.53;1.90;;;;;;;29.33;47.31;93685.84;5058556;28;20175;-77
2023/08/06 10:10:05;;;;;;;3.45;2.00;;;;;;;29.05;48.38;93675.22;5053553;28;20653;-76
2023/08/06 10:12:35;;;;;;;3.80;1.80;;;;;;;28.70;47.61;93683.34;5051019;28;20179;-76
2023/08/06 10:15:07;;;;;;;2.80;1.90;;;;;;;28.64;49.42;93686.66;5061454;28;20170;-76
2023/08/06 10:17:34;;;;;;;2.50;1.85;;;;;;;28.79;50.09;93686.69;5051657;28;20166;-77
2023/08/06 10:20:00;;;;;;;6.68;2.50;;;;;;;28.78;49.36;93676.19;5055749;28;20189;-75
2023/08/06 10:22:27;;;;;;;2.47;1.92;;;;;;;28.52;49.55;93674.03;5051456;28;20171;-75
2023/08/06 10:25:04;;;;;;;4.15;1.95;;;;;;;28.48;51.12;93681.28;5049331;28;20225;-75
2023/08/06 10:27:34;;;;;;;3.40;2.15;;;;;;;28.44;51.59;93677.72;5050145;28;20198;-76
2023/08/06 10:30:26;;;;;;;4.18;2.10;;;;;;;28.57;52.04;93689.22;5055712;28;20237;-76
2023/08/06 10:33:00;;;;;;;4.40;1.80;;;;;;;28.66;51.09;93681.69;5056360;28;20174;-76
2023/08/06 10:35:43;;;;;;;3.50;1.80;;;;;;;28.77;50.44;93702.50;5048108;28;20178;-75
2023/08/06 10:38:10;;;;;;;1.63;1.52;;;;;;;28.87;51.53;93709.28;5054342;28;20207;-75
2023/08/06 10:40:40;;;;;;;3.47;2.22;;;;;;;28.88;50.34;93703.53;5057511;28;20182;-75
2023/08/06 10:43:07;;;;;;;1.92;1.73;;;;;;;28.68;50.76;93701.09;5049315;28;20228;-75
2023/08/06 10:45:37;;;;;;;4.90;2.08;;;;;;;28.56;51.45;93715.50;5051154;28;20214;-75
2023/08/06 10:48:04;;;;;;;2.50;1.80;;;;;;;28.42;52.10;93710.56;5050859;28;20184;-75
2023/08/06 10:50:31;;;;;;;2.95;1.95;;;;;;;28.33;52.69;93711.88;5050087;28;20583;-75
2023/08/06 10:52:57;;;;;;;3.78;1.88;;;;;;;28.27;52.68;93713.28;5069756;28;20170;-75
2023/08/06 10:55:24;;;;;;;3.00;2.47;;;;;;;28.23;52.68;93713.19;5063253;28;20197;-75
2023/08/06 10:57:50;;;;;;;5.15;1.85;;;;;;;28.25;52.79;93712.84;5062226;28;20171;-75
2023/08/06 11:00:16;;;;;;;2.42;1.90;;;;;;;28.37;53.42;93720.84;5064856;28;20186;-75
2023/08/06 11:02:41;;;;;;;2.80;2.25;;;;;;;28.41;51.97;93710.91;5066551;28;20178;-75
2023/08/06 11:05:11;;;;;;;5.10;1.98;;;;;;;28.59;52.37;93730.28;5064727;28;20215;-75
2023/08/06 11:07:37;;;;;;;3.35;2.28;;;;;;;28.42;50.29;93742.28;5062060;28;20587;-75
2023/08/06 11:10:11;;;;;;;4.97;2.72;;;;;;;28.17;51.21;93749.00;5057288;28;20265;-75
2023/08/06 11:12:36;;;;;;;2.97;2.67;;;;;;;27.90;52.67;93735.13;5063874;28;20183;-75
2023/08/06 11:15:03;;;;;;;9.00;7.05;;;;;;;27.62;53.51;93723.56;5059823;28;20186;-75
2023/08/06 11:17:30;;;;;;;8.55;3.83;;;;;;;27.41;55.33;93738.06;5066943;28;20179;-75
2023/08/06 11:19:56;;;;;;;14.73;9.98;;;;;;;27.24;55.98;93737.53;5061512;28;20668;-72
2023/08/06 11:22:22;;;;;;;2.83;2.50;;;;;;;26.91;55.17;93738.50;5066902;28;20179;-74
2023/08/06 11:24:48;;;;;;;3.28;2.58;;;;;;;26.67;56.53;93750.09;5055560;28;20178;-73
2023/08/06 11:27:15;;;;;;;2.83;2.40;;;;;;;26.45;56.91;93730.88;5065443;28;20199;-75